createdAt,value
2022-09-27T00:00:37.291Z,0.30
2022-09-27T00:03:03.882Z,0.30
2022-09-27T00:05:30.501Z,0.20
2022-09-27T00:07:56.992Z,0.40
2022-09-27T00:10:23.497Z,0.25
2022-09-27T00:12:50.037Z,0.30
2022-09-27T00:15:16.898Z,0.30
2022-09-27T00:17:43.501Z,0.20
2022-09-27T00:20:09.964Z,0.38
2022-09-27T00:22:36.435Z,0.40
2022-09-27T00:25:05.689Z,0.30
2022-09-27T00:27:32.146Z,0.30
2022-09-27T00:29:58.610Z,0.30
2022-09-27T00:32:25.124Z,0.50
2022-09-27T00:34:51.792Z,0.32
2022-09-27T00:37:18.417Z,0.40
2022-09-27T00:39:44.955Z,0.45
2022-09-27T00:42:12.160Z,0.40
2022-09-27T00:44:38.674Z,0.50
2022-09-27T00:47:21.598Z,0.40
2022-09-27T00:49:52.426Z,0.40
2022-09-27T00:52:26.060Z,0.45
2022-09-27T00:55:01.636Z,0.50
2022-09-27T00:57:28.114Z,0.38
2022-09-27T00:59:59.191Z,0.20
2022-09-27T01:02:25.761Z,0.40
2022-09-27T01:04:53.394Z,0.40
2022-09-27T01:07:19.854Z,0.50
2022-09-27T01:09:46.392Z,0.30
2022-09-27T01:12:31.323Z,0.50
2022-09-27T01:15:05.389Z,0.60
2022-09-27T01:20:41.448Z,0.30
2022-09-27T01:23:35.116Z,0.40
2022-09-27T01:26:29.456Z,0.40
2022-09-27T01:29:02.924Z,0.60
2022-09-27T01:31:33.960Z,0.82
2022-09-27T01:34:03.565Z,0.43
2022-09-27T01:36:38.244Z,0.40
2022-09-27T01:39:29.198Z,0.43
2022-09-27T01:42:22.186Z,0.38
2022-09-27T01:45:06.663Z,0.43
2022-09-27T01:47:37.826Z,0.50
2022-09-27T01:50:26.876Z,0.40
2022-09-27T01:52:55.293Z,0.50
2022-09-27T01:55:23.828Z,0.40
2022-09-27T01:57:54.626Z,0.40
2022-09-27T02:00:21.157Z,0.43
2022-09-27T02:02:55.641Z,0.50
2022-09-27T02:05:23.164Z,0.40
2022-09-27T02:07:56.477Z,0.40
2022-09-27T02:10:25.017Z,0.32
2022-09-27T02:13:33.655Z,0.50
2022-09-27T02:16:03.153Z,0.43
2022-09-27T02:18:34.170Z,0.50
2022-09-27T02:21:01.243Z,0.57
2022-09-27T02:23:45.263Z,0.45
2022-09-27T02:26:38.648Z,0.40
2022-09-27T02:29:11.271Z,0.57
2022-09-27T02:31:37.800Z,0.50
2022-09-27T02:34:16.346Z,0.70
2022-09-27T02:36:42.803Z,1.00
2022-09-27T02:39:09.386Z,1.20
2022-09-27T02:41:35.971Z,0.80
2022-09-27T02:44:05.095Z,1.10
2022-09-27T02:46:54.740Z,1.00
2022-09-27T02:49:31.850Z,0.90
2022-09-27T02:52:23.432Z,1.08
2022-09-27T02:55:03.809Z,1.00
2022-09-27T02:57:57.726Z,1.33
2022-09-27T03:00:32.439Z,0.90
2022-09-27T03:03:00.953Z,1.25
2022-09-27T03:05:30.146Z,1.00
2022-09-27T03:07:57.027Z,1.17
2022-09-27T03:10:27.999Z,1.25
2022-09-27T03:12:54.766Z,1.10
2022-09-27T03:15:21.236Z,1.20
2022-09-27T03:17:47.704Z,1.13
2022-09-27T03:20:14.195Z,1.27
2022-09-27T03:22:40.931Z,1.08
2022-09-27T03:25:07.921Z,1.20
2022-09-27T03:27:34.379Z,1.00
2022-09-27T03:30:01.202Z,0.75
2022-09-27T03:32:28.213Z,1.00
2022-09-27T03:34:55.323Z,1.00
2022-09-27T03:37:22.114Z,1.00
2022-09-27T03:39:49.164Z,1.20
2022-09-27T03:42:15.633Z,1.00
2022-09-27T03:44:43.004Z,0.90
2022-09-27T03:47:09.478Z,0.90
2022-09-27T03:49:35.992Z,1.30
2022-09-27T03:52:02.473Z,1.13
2022-09-27T03:54:28.928Z,1.10
2022-09-27T03:56:55.689Z,0.85
2022-09-27T03:59:22.151Z,1.00
2022-09-27T04:01:48.651Z,0.65
2022-09-27T04:04:15.179Z,0.80
2022-09-27T04:06:41.646Z,1.00
2022-09-27T04:09:08.283Z,0.80
2022-09-27T04:11:34.732Z,0.70
2022-09-27T04:14:01.921Z,0.88
2022-09-27T04:16:28.405Z,0.55
2022-09-27T04:18:54.904Z,0.80
2022-09-27T04:21:22.512Z,0.70
2022-09-27T04:23:48.977Z,0.95
2022-09-27T04:26:15.468Z,0.68
2022-09-27T04:28:43.013Z,0.70
2022-09-27T04:31:09.591Z,0.88
2022-09-27T04:33:36.151Z,0.50
2022-09-27T04:36:21.140Z,0.70
2022-09-27T04:38:48.449Z,0.98
2022-09-27T04:41:15.373Z,0.40
2022-09-27T04:43:41.854Z,0.43
2022-09-27T04:46:08.348Z,0.80
2022-09-27T04:48:35.280Z,0.60
2022-09-27T04:51:04.921Z,0.85
2022-09-27T04:53:31.506Z,0.75
2022-09-27T04:55:58.261Z,0.57
2022-09-27T04:58:24.799Z,0.57
2022-09-27T05:00:52.355Z,0.70
2022-09-27T05:03:19.450Z,0.65
2022-09-27T05:05:45.897Z,0.68
2022-09-27T05:08:12.349Z,0.50
2022-09-27T05:10:38.801Z,0.52
2022-09-27T05:13:05.287Z,0.57
2022-09-27T05:15:31.789Z,0.70
2022-09-27T05:17:58.732Z,0.70
2022-09-27T05:20:25.602Z,0.80
2022-09-27T05:22:52.392Z,0.70
2022-09-27T05:25:18.909Z,0.50
2022-09-27T05:27:45.404Z,0.70
2022-09-27T05:30:12.050Z,0.90
2022-09-27T05:32:43.859Z,0.80
2022-09-27T05:35:10.477Z,0.60
2022-09-27T05:37:36.966Z,0.73
2022-09-27T05:40:16.847Z,0.70
2022-09-27T05:42:51.364Z,0.70
2022-09-27T05:45:17.958Z,0.60
2022-09-27T05:47:44.423Z,0.50
2022-09-27T05:50:10.866Z,0.60
2022-09-27T05:52:37.333Z,0.50
2022-09-27T05:55:03.995Z,0.68
2022-09-27T05:57:30.488Z,0.60
2022-09-27T05:59:56.925Z,1.10
2022-09-27T06:02:23.491Z,0.60
2022-09-27T06:04:49.946Z,0.60
2022-09-27T06:07:16.383Z,0.60
2022-09-27T06:09:44.244Z,0.77
2022-09-27T06:12:11.802Z,0.60
2022-09-27T06:14:38.253Z,0.70
2022-09-27T06:17:05.202Z,0.68
2022-09-27T06:19:31.721Z,0.70
2022-09-27T06:21:58.186Z,0.75
2022-09-27T06:24:24.637Z,0.82
2022-09-27T06:26:51.082Z,0.70
2022-09-27T06:29:17.534Z,1.00
2022-09-27T06:31:43.984Z,0.80
2022-09-27T06:34:10.435Z,1.00
2022-09-27T06:36:36.873Z,0.73
2022-09-27T06:39:03.351Z,0.82
2022-09-27T06:41:29.804Z,0.70
2022-09-27T06:43:56.259Z,1.00
2022-09-27T06:46:22.747Z,0.70
2022-09-27T06:48:49.206Z,0.47
2022-09-27T06:51:15.816Z,0.82
2022-09-27T06:53:42.275Z,1.08
2022-09-27T06:56:08.805Z,0.77
2022-09-27T06:58:53.802Z,0.70
2022-09-27T07:01:20.387Z,0.70
2022-09-27T07:03:50.424Z,0.60
2022-09-27T07:06:22.788Z,0.70
2022-09-27T07:08:53.035Z,0.90
2022-09-27T07:11:19.590Z,0.77
2022-09-27T07:13:46.045Z,0.60
2022-09-27T07:16:13.454Z,0.68
2022-09-27T07:18:41.011Z,0.85
2022-09-27T07:21:08.699Z,0.70
2022-09-27T07:23:36.133Z,0.68
2022-09-27T07:26:04.452Z,0.75
2022-09-27T07:28:31.623Z,0.40
2022-09-27T07:30:58.212Z,0.70
2022-09-27T07:33:24.760Z,0.57
2022-09-27T07:35:51.217Z,0.57
2022-09-27T07:38:17.735Z,0.50
2022-09-27T07:40:44.338Z,0.50
2022-09-27T07:43:12.162Z,0.73
2022-09-27T07:45:38.657Z,0.47
2022-09-27T07:48:08.684Z,0.60
2022-09-27T07:50:35.425Z,0.75
2022-09-27T07:53:01.916Z,0.70
2022-09-27T07:55:28.362Z,0.50
2022-09-27T07:58:05.190Z,0.47
2022-09-27T08:00:31.649Z,0.60
2022-09-27T08:02:58.101Z,0.43
2022-09-27T08:05:24.617Z,0.60
2022-09-27T08:07:55.371Z,0.60
2022-09-27T08:10:21.824Z,0.43
2022-09-27T08:12:48.298Z,0.77
2022-09-27T08:15:14.743Z,0.73
2022-09-27T08:17:41.467Z,0.50
2022-09-27T08:20:08.328Z,0.60
2022-09-27T08:22:40.258Z,0.40
2022-09-27T08:25:06.920Z,0.40
2022-09-27T08:27:34.425Z,0.55
2022-09-27T08:30:00.876Z,0.30
2022-09-27T08:32:28.997Z,0.40
2022-09-27T08:34:55.441Z,0.50
2022-09-27T08:37:22.172Z,0.40
2022-09-27T08:39:48.701Z,0.45
2022-09-27T08:42:35.035Z,0.40
2022-09-27T08:45:18.629Z,0.40
2022-09-27T08:47:50.804Z,0.30
2022-09-27T08:50:39.727Z,0.60
2022-09-27T08:53:30.581Z,0.50
2022-09-27T08:55:57.593Z,0.50
2022-09-27T08:58:31.103Z,0.30
2022-09-27T09:00:59.681Z,0.32
2022-09-27T09:03:28.310Z,0.30
2022-09-27T09:06:26.347Z,0.40
2022-09-27T09:09:15.695Z,0.50
2022-09-27T09:12:34.292Z,0.30
2022-09-27T09:15:14.271Z,0.47
2022-09-27T09:17:56.005Z,0.40
2022-09-27T09:20:45.281Z,0.52
2022-09-27T09:23:22.038Z,0.35
2022-09-27T09:26:05.793Z,0.40
2022-09-27T09:28:58.160Z,0.30
2022-09-27T09:31:51.863Z,0.50
2022-09-27T09:34:33.565Z,0.57
2022-09-27T09:37:17.412Z,0.30
2022-09-27T09:39:55.800Z,0.30
2022-09-27T09:42:33.565Z,0.30
2022-09-27T09:45:05.983Z,0.40
2022-09-27T09:47:38.090Z,0.40
2022-09-27T09:50:07.095Z,0.40
2022-09-27T09:52:39.972Z,0.35
2022-09-27T09:55:13.172Z,0.50
2022-09-27T09:57:44.133Z,0.30
2022-09-27T10:00:14.852Z,0.30
2022-09-27T10:02:45.492Z,0.40
2022-09-27T10:05:14.990Z,0.30
2022-09-27T10:07:41.671Z,0.40
2022-09-27T10:10:08.823Z,0.40
2022-09-27T10:12:35.291Z,0.35
2022-09-27T10:15:03.012Z,0.30
2022-09-27T10:17:41.720Z,0.30
2022-09-27T10:20:08.548Z,0.30
2022-09-27T10:22:43.186Z,0.52
2022-09-27T10:25:10.808Z,0.30
2022-09-27T10:27:45.871Z,0.32
2022-09-27T10:30:29.803Z,0.35
2022-09-27T10:33:07.840Z,0.30
2022-09-27T10:35:39.371Z,0.38
2022-09-27T10:38:25.665Z,0.40
2022-09-27T10:40:53.861Z,0.52
2022-09-27T10:43:30.125Z,0.30
2022-09-27T10:46:12.685Z,0.30
2022-09-27T10:48:39.519Z,0.40
2022-09-27T10:51:07.567Z,0.32
2022-09-27T10:53:35.389Z,0.20
2022-09-27T10:56:01.910Z,0.40
2022-09-27T10:58:33.518Z,0.30
2022-09-27T11:01:03.261Z,0.30
2022-09-27T11:03:36.285Z,0.30
2022-09-27T11:06:28.239Z,0.30
2022-09-27T11:08:55.516Z,0.32
2022-09-27T11:11:26.671Z,0.40
2022-09-27T11:14:08.001Z,0.30
2022-09-27T11:17:01.083Z,0.50
2022-09-27T11:19:42.237Z,0.45
2022-09-27T11:22:15.586Z,0.30
2022-09-27T11:24:53.711Z,0.35
2022-09-27T11:27:34.528Z,0.30
2022-09-27T11:30:05.056Z,0.30
2022-09-27T11:32:42.108Z,0.40
2022-09-27T11:35:33.755Z,0.40
2022-09-27T11:38:09.675Z,0.30
2022-09-27T11:41:13.702Z,0.22
2022-09-27T11:43:56.318Z,0.30
2022-09-27T11:46:40.410Z,0.30
2022-09-27T11:49:26.819Z,0.20
2022-09-27T11:52:34.914Z,0.50
2022-09-27T11:55:24.254Z,0.35
2022-09-27T11:58:00.792Z,0.40
2022-09-27T12:00:56.069Z,0.20
2022-09-27T12:03:43.127Z,0.40
2022-09-27T12:06:16.252Z,0.50
2022-09-27T12:08:55.183Z,0.30
2022-09-27T12:11:25.377Z,0.32
2022-09-27T12:14:10.976Z,0.25
2022-09-27T12:16:37.446Z,0.30
2022-09-27T12:19:04.008Z,0.57
2022-09-27T12:21:30.682Z,0.60
2022-09-27T12:24:00.085Z,1.00
2022-09-27T12:26:30.072Z,1.30
2022-09-27T12:29:22.355Z,1.08
2022-09-27T12:32:06.065Z,1.10
2022-09-27T12:34:49.802Z,0.90
2022-09-27T12:37:18.939Z,1.00
2022-09-27T12:40:06.716Z,1.10
2022-09-27T12:42:43.041Z,1.20
2022-09-27T12:45:16.203Z,1.10
2022-09-27T12:48:11.880Z,1.17
2022-09-27T12:50:45.215Z,1.23
2022-09-27T12:53:19.954Z,1.15
2022-09-27T12:56:03.654Z,1.50
2022-09-27T12:59:00.168Z,1.38
2022-09-27T13:01:42.287Z,1.30
2022-09-27T13:04:46.670Z,1.40
2022-09-27T13:07:41.509Z,0.90
2022-09-27T13:10:24.123Z,1.00
2022-09-27T13:12:51.323Z,1.17
2022-09-27T13:15:33.850Z,0.90
2022-09-27T13:18:01.904Z,1.30
2022-09-27T13:20:31.335Z,1.27
2022-09-27T13:23:18.788Z,0.90
2022-09-27T13:25:56.264Z,1.05
2022-09-27T13:28:32.064Z,1.10
2022-09-27T13:31:00.044Z,0.90
2022-09-27T13:33:41.474Z,0.90
2022-09-27T13:36:17.077Z,1.10
2022-09-27T13:39:04.181Z,0.88
2022-09-27T13:41:49.056Z,1.10
2022-09-27T13:44:30.869Z,1.10
2022-09-27T13:47:00.543Z,1.02
2022-09-27T13:49:33.955Z,0.82
2022-09-27T13:52:02.958Z,0.88
2022-09-27T13:54:39.566Z,0.80
2022-09-27T13:57:09.644Z,0.82
2022-09-27T13:59:52.943Z,0.90
2022-09-27T14:02:21.362Z,1.05
2022-09-27T14:04:49.711Z,1.13
2022-09-27T14:07:21.906Z,0.95
2022-09-27T14:09:49.648Z,1.20
2022-09-27T14:12:38.056Z,1.10
2022-09-27T14:15:04.635Z,1.20
2022-09-27T14:17:31.285Z,0.93
2022-09-27T14:19:57.745Z,1.08
2022-09-27T14:22:24.339Z,1.17
2022-09-27T14:24:51.722Z,2.05
2022-09-27T14:27:19.089Z,2.25
2022-09-27T14:29:56.925Z,1.50
2022-09-27T14:32:25.683Z,1.70
2022-09-27T14:35:40.911Z,1.77
2022-09-27T14:38:32.968Z,1.30
2022-09-27T14:40:59.857Z,1.17
2022-09-27T14:43:26.505Z,1.50
2022-09-27T14:45:53.897Z,1.58
2022-09-27T14:48:33.634Z,1.70
2022-09-27T14:51:14.596Z,1.27
2022-09-27T14:53:45.023Z,1.77
2022-09-27T14:56:17.988Z,1.50
2022-09-27T14:58:48.454Z,1.60
2022-09-27T15:01:16.259Z,1.30
2022-09-27T15:03:44.746Z,1.40
2022-09-27T15:06:11.350Z,1.35
2022-09-27T15:08:37.800Z,1.38
2022-09-27T15:11:10.531Z,1.42
2022-09-27T15:13:37.512Z,1.30
2022-09-27T15:16:17.130Z,1.27
2022-09-27T15:18:45.236Z,1.40
2022-09-27T15:21:14.266Z,1.23
2022-09-27T15:23:44.400Z,1.00
2022-09-27T15:26:13.264Z,1.20
2022-09-27T15:28:43.120Z,1.10
2022-09-27T15:31:09.684Z,1.30
2022-09-27T15:33:36.247Z,1.10
2022-09-27T15:36:07.286Z,1.38
2022-09-27T15:38:40.263Z,1.20
2022-09-27T15:41:14.414Z,1.15
2022-09-27T15:43:47.913Z,1.13
2022-09-27T15:46:26.418Z,0.90
2022-09-27T15:49:17.942Z,1.10
2022-09-27T15:51:47.929Z,1.08
2022-09-27T15:54:15.848Z,1.10
2022-09-27T15:56:42.294Z,0.70
2022-09-27T15:59:16.678Z,1.30
2022-09-27T16:01:43.317Z,2.70
2022-09-27T16:04:09.848Z,3.03
2022-09-27T16:06:36.289Z,3.30
2022-09-27T16:09:02.735Z,3.67
2022-09-27T16:11:29.183Z,4.68
2022-09-27T16:13:56.178Z,7.68
2022-09-27T16:16:22.920Z,18.00
2022-09-27T16:18:49.578Z,21.73
2022-09-27T16:21:16.262Z,58.70
2022-09-27T16:23:42.770Z,63.67
2022-09-27T16:26:09.209Z,154.18
2022-09-27T16:28:35.718Z,133.15
2022-09-27T16:31:06.271Z,177.80
2022-09-27T16:33:32.872Z,147.90
2022-09-27T16:36:01.320Z,124.32
2022-09-27T16:38:30.157Z,107.30
2022-09-27T16:41:02.069Z,91.40
2022-09-27T16:43:28.922Z,78.20
2022-09-27T16:45:58.756Z,69.55
2022-09-27T16:48:25.426Z,57.47
2022-09-27T16:51:10.517Z,49.95
2022-09-27T16:53:37.074Z,45.55
2022-09-27T16:56:03.522Z,39.90
2022-09-27T16:58:30.543Z,33.13
2022-09-27T17:00:59.993Z,30.75
2022-09-27T17:03:26.685Z,26.83
2022-09-27T17:05:53.121Z,23.80
2022-09-27T17:08:19.566Z,19.77
2022-09-27T17:10:46.497Z,20.13
2022-09-27T17:13:13.421Z,22.75
2022-09-27T17:15:41.833Z,22.23
2022-09-27T17:18:08.317Z,20.38
2022-09-27T17:20:34.764Z,20.30
2022-09-27T17:23:01.533Z,17.63
2022-09-27T17:25:27.973Z,17.10
2022-09-27T17:27:54.748Z,16.70
2022-09-27T17:30:21.186Z,16.27
2022-09-27T17:32:47.639Z,15.60
2022-09-27T17:35:14.189Z,14.57
2022-09-27T17:37:40.668Z,14.77
2022-09-27T17:40:07.873Z,14.13
2022-09-27T17:42:37.489Z,12.20
2022-09-27T17:45:03.966Z,12.40
2022-09-27T17:47:48.991Z,12.75
2022-09-27T17:50:28.583Z,12.02
2022-09-27T17:52:57.025Z,11.63
2022-09-27T17:55:23.773Z,10.82
2022-09-27T17:57:50.319Z,9.90
2022-09-27T18:00:17.586Z,10.35
2022-09-27T18:02:45.109Z,9.48
2022-09-27T18:05:11.764Z,9.18
2022-09-27T18:07:38.222Z,8.30
2022-09-27T18:10:05.130Z,8.77
2022-09-27T18:12:35.132Z,7.40
2022-09-27T18:15:02.333Z,7.05
2022-09-27T18:17:28.822Z,7.22
2022-09-27T18:19:57.008Z,6.80
2022-09-27T18:22:28.055Z,6.60
2022-09-27T18:24:54.523Z,6.38
2022-09-27T18:27:21.177Z,6.30
2022-09-27T18:29:47.680Z,6.32
2022-09-27T18:32:14.176Z,5.15
2022-09-27T18:34:40.840Z,5.80
2022-09-27T18:37:07.301Z,5.30
2022-09-27T18:39:33.746Z,5.68
2022-09-27T18:42:00.294Z,5.60
2022-09-27T18:44:26.739Z,6.35
2022-09-27T18:46:53.277Z,5.78
2022-09-27T18:49:23.507Z,5.70
2022-09-27T18:51:52.774Z,4.93
2022-09-27T18:54:20.746Z,5.20
2022-09-27T18:56:48.311Z,4.50
2022-09-27T18:59:15.047Z,4.72
2022-09-27T19:01:44.826Z,4.15
2022-09-27T19:04:12.855Z,4.30
2022-09-27T19:06:39.457Z,4.30
2022-09-27T19:09:06.460Z,4.43
2022-09-27T19:11:34.026Z,5.10
2022-09-27T19:14:00.600Z,4.63
2022-09-27T19:16:27.511Z,4.80
2022-09-27T19:18:54.027Z,5.35
2022-09-27T19:21:22.127Z,5.25
2022-09-27T19:23:49.758Z,4.75
2022-09-27T19:26:20.316Z,4.80
2022-09-27T19:28:46.840Z,4.68
2022-09-27T19:31:17.909Z,4.32
2022-09-27T19:33:44.411Z,4.47
2022-09-27T19:36:11.809Z,4.22
2022-09-27T19:38:38.382Z,4.53
2022-09-27T19:41:05.729Z,4.32
2022-09-27T19:43:32.542Z,4.07
2022-09-27T19:46:05.539Z,4.80
2022-09-27T19:48:32.195Z,5.80
2022-09-27T19:50:59.227Z,9.63
2022-09-27T19:53:29.870Z,11.52
2022-09-27T19:55:58.896Z,11.70
2022-09-27T19:58:25.791Z,11.27
2022-09-27T20:01:06.361Z,11.80
2022-09-27T20:03:33.277Z,10.48
2022-09-27T20:05:59.931Z,9.25
2022-09-27T20:08:27.332Z,7.97
2022-09-27T20:10:55.168Z,8.45
2022-09-27T20:13:23.613Z,8.45
2022-09-27T20:15:50.385Z,8.73
2022-09-27T20:18:17.049Z,8.30
2022-09-27T20:20:43.625Z,8.00
2022-09-27T20:23:10.823Z,8.65
2022-09-27T20:25:42.157Z,8.20
2022-09-27T20:28:09.493Z,8.05
2022-09-27T20:30:35.943Z,7.70
2022-09-27T20:33:20.722Z,7.63
2022-09-27T20:35:51.534Z,7.57
2022-09-27T20:38:18.403Z,7.43
2022-09-27T20:40:52.594Z,7.45
2022-09-27T20:43:19.353Z,6.72
2022-09-27T20:45:45.829Z,7.05
2022-09-27T20:48:12.294Z,7.18
2022-09-27T20:50:38.735Z,6.50
2022-09-27T20:53:05.212Z,6.88
2022-09-27T20:55:33.408Z,6.82
2022-09-27T20:57:59.890Z,6.05
2022-09-27T21:00:26.523Z,6.28
2022-09-27T21:02:53.041Z,5.88
2022-09-27T21:05:19.502Z,5.45
2022-09-27T21:07:45.960Z,5.35
2022-09-27T21:10:12.399Z,5.78
2022-09-27T21:12:38.851Z,5.05
2022-09-27T21:15:05.548Z,5.18
2022-09-27T21:17:32.526Z,5.18
2022-09-27T21:19:59.000Z,5.30
2022-09-27T21:22:25.454Z,5.57
2022-09-27T21:24:51.896Z,5.38
2022-09-27T21:27:18.355Z,5.25
2022-09-27T21:29:44.799Z,4.78
2022-09-27T21:32:11.251Z,4.82
2022-09-27T21:34:37.696Z,4.82
2022-09-27T21:37:04.332Z,4.70
2022-09-27T21:39:31.385Z,4.07
2022-09-27T21:41:57.834Z,4.35
2022-09-27T21:44:24.278Z,4.28
2022-09-27T21:46:51.947Z,3.95
2022-09-27T21:49:18.654Z,3.67
2022-09-27T21:51:45.257Z,3.70
2022-09-27T21:54:14.688Z,3.45
2022-09-27T21:56:41.326Z,3.90
2022-09-27T21:59:10.001Z,4.25
2022-09-27T22:01:36.614Z,3.60
2022-09-27T22:04:04.375Z,3.60
2022-09-27T22:06:32.477Z,3.42
2022-09-27T22:08:59.400Z,3.30
2022-09-27T22:11:30.631Z,3.20
2022-09-27T22:13:57.445Z,3.13
2022-09-27T22:16:24.764Z,3.28
2022-09-27T22:18:51.923Z,3.50
2022-09-27T22:21:21.015Z,3.15
2022-09-27T22:23:47.466Z,3.38
2022-09-27T22:26:21.276Z,2.83
2022-09-27T22:28:47.736Z,3.20
2022-09-27T22:31:15.112Z,2.92
2022-09-27T22:33:42.383Z,2.60
2022-09-27T22:36:08.887Z,2.92
2022-09-27T22:38:35.568Z,2.88
2022-09-27T22:41:02.138Z,2.95
2022-09-27T22:43:29.268Z,2.85
2022-09-27T22:45:56.735Z,2.60
2022-09-27T22:48:23.252Z,2.80
2022-09-27T22:50:49.693Z,2.88
2022-09-27T22:53:16.153Z,2.65
2022-09-27T22:55:42.595Z,2.40
2022-09-27T22:58:09.436Z,2.25
2022-09-27T23:00:38.035Z,2.30
2022-09-27T23:03:04.559Z,2.42
2022-09-27T23:05:31.014Z,2.28
2022-09-27T23:07:57.289Z,2.30
2022-09-27T23:10:23.772Z,2.28
2022-09-27T23:12:53.057Z,2.60
2022-09-27T23:15:19.504Z,2.20
2022-09-27T23:17:48.549Z,1.70
2022-09-27T23:20:14.986Z,2.17
2022-09-27T23:22:41.452Z,2.03
2022-09-27T23:25:08.244Z,2.50
2022-09-27T23:27:45.244Z,2.10
2022-09-27T23:30:13.378Z,2.30
2022-09-27T23:32:40.296Z,1.83
2022-09-27T23:35:06.839Z,2.05
2022-09-27T23:37:33.327Z,2.10
2022-09-27T23:39:59.792Z,1.80
2022-09-27T23:42:27.021Z,2.00
2022-09-27T23:44:53.572Z,2.00
2022-09-27T23:47:20.278Z,2.25
2022-09-27T23:49:46.715Z,1.80
2022-09-27T23:52:13.271Z,1.85
2022-09-27T23:54:39.726Z,2.05
2022-09-27T23:57:06.429Z,2.20
2022-09-27T23:59:32.871Z,1.88
